Hauptseite
METAR-TAF:

METAR-TAF

Flughäfen :

K13-a, Niederlande

Bohrplattform

Breite: 53-13-04N, Länge: 3-13-13E, Höhe: 31 m

Beobachtung

Neuester Wetterbericht von vor 31 Minuten, um 10:55 UTC
Wind 37 kt aus West, Böen bis zu 41 kt
Temperatur 10°C
Luftfeuchtigkeit 57%
Luftdruck 993 hPa

METAR: EHJR 231055Z AUTO 27037G41KT //// ///////// 10/02 Q0993 W12/H30

Zeit: 12:26 (11:26 UTC)


TAF: fehlend

Wetterbeobachtungen und Prognosen von mehr als 4000 Flughäfen (METAR und TAF Bericht).

Die verfügbaren Stationen werden durch gelbe und rote Markierungen auf der Karte dargestellt.

Führen Sie die Maus auf sie, um den Namen der Station zu sehen.

Darauf klicken, um die Beobachtung von Wetterbeobachtungen und Prognosen zu sehen.

Um die Karte zu ändern : klicken Sie auf den grünen Tasten mit einem schwarzen Kreuz Zum Vergrößern, auf den grünen Button mit einem Gedankenstrich zu verkleinern, oder auf die grünen Pfeile für benachbarte Karten.


METAR-TAF: